• Join FlightAware (Why Join?)
  • Login
  • US Flag 
07:31AM EST


 

Airport Tracker/Info


-or-


 

Live Flight TrackerFlight Track Log ✈ N498QS ✈ 19-Apr-2013 ✈ KAUS - KOWB

Flight Track Log - Related Links

Times and Time Zones

All times are in EDT time to prevent confusion due to time zone crossing. See the N498QS flight status page for this flight to view local times or setup timezone preferences in your user account.

Time Position Orientation Groundspeed Altitude Reporting Facility
EDT Latitude Longitude Course Direction KTS MPH feet Rate Location/Type
06:15PM 30.2397 -97.6431 90° East 206 237 3,700  Level Houston Center
06:16PM 30.2933 -97.5967 37° Northeast 247 284 5,000 540 Climbing Houston Center
06:17PM 30.3278 -97.5064 66° East 265 305 4,900 1,860 Descending Houston Center
06:18PM 30.3567 -97.4231 68° East 273 314 8,900 3,120 Climbing Houston Center
06:19PM 30.3556 -97.3253 91° East 297 342 11,500 2,220 Climbing Houston Center
06:20PM 30.3500 -97.0676 90° East  Level FlightAware Approximate
06:20PM 30.3528 -97.2000 91° East 374 430 13,600  Level Houston Center
06:21PM 30.3517 -97.0706 91° East 397 457 16,800 2,700 Climbing Houston Center
06:22PM 30.3433 -96.9347 94° East 416 479 19,200 2,520 Climbing Houston Center
06:23PM 30.3331 -96.7647 94° East 446 513 22,100 2,280 Climbing Houston Center
06:24PM 30.3236 -96.6097 94° East 473 544 24,000 1,740 Climbing Houston Center
06:25PM 30.3125 -96.4478 95° East 498 573 25,800 1,620 Climbing Houston Center
06:26PM 30.3028 -96.2756 94° East 526 605 27,400 1,620 Climbing Houston Center
06:27PM 30.3117 -96.0961 87° East 555 639 29,200 1,860 Climbing Houston Center
06:28PM 30.3728 -95.9347 66° East 565 650 31,300 1,800 Climbing Houston Center
06:29PM 30.4669 -95.7883 53° Northeast 563 648 33,000 780 Climbing Houston Center
06:30PM 30.5817 -95.6147 52° Northeast 563 648 33,000  Level Houston Center
06:31PM 30.6792 -95.4664 53° Northeast 570 656 33,000 720 Level Houston Center
06:32PM 30.7711 -95.3197 54° Northeast 565 650 34,500 960 Climbing Houston Center
06:33PM 30.8669 -95.1747 52° Northeast 566 651 35,000 240 Climbing Houston Center
06:34PM 30.9619 -95.0281 53° Northeast 569 655 35,100 960 Climbing Houston Center
06:35PM 31.0756 -94.8528 53° Northeast 568 654 37,100 1,500 Climbing Houston Center
06:36PM 31.1833 -94.7108 48° Northeast 592 681 38,300 1,500 Climbing Houston Center
06:37PM 31.2931 -94.6253 34° Northeast 529 609 40,300 1,260 Climbing Houston Center
06:39PM 31.4453 -94.5206 30° Northeast 530 610 41,000 300 Climbing Fort Worth Center
06:40PM 31.5706 -94.4339 31° Northeast 525 604 41,000  Level Fort Worth Center
06:41PM 31.6981 -94.3467 30° Northeast 525 604 41,000  Level Fort Worth Center
06:42PM 31.8231 -94.2569 31° Northeast 525 604 41,000  Level Fort Worth Center
06:43PM 31.9236 -94.1875 30° Northeast 525 604 41,000  Level Fort Worth Center
06:44PM 32.0753 -94.0817 31° Northeast 525 604 41,000  Level Fort Worth Center
06:45PM 32.1736 -94.0117 31° Northeast 520 598 41,000  Level Fort Worth Center
06:46PM 32.3086 -93.9083 33° Northeast 520 598 41,000  Level Fort Worth Center
06:47PM 32.4336 -93.8197 31° Northeast 520 598 41,000  Level Fort Worth Center
06:48PM 32.5564 -93.7336 31° Northeast 520 598 41,000  Level Fort Worth Center
06:49PM 32.6811 -93.6472 30° Northeast 514 592 41,000  Level Fort Worth Center
06:50PM 32.8036 -93.5578 32° Northeast 514 592 41,000  Level Fort Worth Center
06:51PM 32.9281 -93.4708 30° Northeast 514 592 41,000  Level Fort Worth Center
06:52PM 33.0547 -93.3786 31° Northeast 520 598 41,000  Level Fort Worth Center
06:53PM 33.1792 -93.2886 31° Northeast 520 598 41,000  Level Fort Worth Center
06:54PM 33.3947 -93.1339 31° Northeast 517 595 41,000  Level Memphis Center
06:55PM 33.5200 -93.0408 32° Northeast 517 595 41,000  Level Memphis Center
06:56PM 33.6450 -92.9497 31° Northeast 522 601 41,000  Level Memphis Center
06:57PM 33.7722 -92.8586 31° Northeast 522 601 41,000  Level Memphis Center
06:58PM 33.8950 -92.7669 32° Northeast 522 601 41,000  Level Memphis Center
06:59PM 34.0219 -92.6753 31° Northeast 522 601 41,000  Level Memphis Center
07:00PM 34.1425 -92.5781 34° Northeast 522 601 41,000  Level Memphis Center
07:01PM 34.2672 -92.4858 31° Northeast 522 601 41,000  Level Memphis Center
07:02PM 34.3942 -92.3908 32° Northeast 528 608 41,000  Level Memphis Center
07:03PM 34.5144 -92.3006 32° Northeast 528 608 41,000  Level Memphis Center
07:04PM 34.6306 -92.2122 32° Northeast 539 620 41,000  Level Memphis Center
07:05PM 34.7428 -92.0933 41° Northeast 534 615 41,000  Level Memphis Center
07:06PM 34.8489 -91.9589 46° Northeast 534 615 41,000  Level Memphis Center
07:07PM 34.9508 -91.8292 46° Northeast 534 615 41,000  Level Memphis Center
07:08PM 35.0544 -91.6964 46° Northeast 539 620 41,000  Level Memphis Center
07:09PM 35.1581 -91.5608 47° Northeast 539 620 41,000  Level Memphis Center
07:10PM 35.2636 -91.4278 46° Northeast 544 626 41,000  Level Memphis Center
07:11PM 35.3689 -91.2917 46° Northeast 544 626 41,000  Level Memphis Center
07:12PM 35.4825 -91.1450 46° Northeast 544 626 41,000  Level Memphis Center
07:13PM 35.5856 -91.0081 47° Northeast 544 626 41,000  Level Memphis Center
07:14PM 35.6925 -90.8658 47° Northeast 549 632 41,000  Level Memphis Center
07:15PM 35.7806 -90.7433 48° Northeast 540 621 41,000  Level Memphis Center
07:16PM 35.8853 -90.6056 47° Northeast 540 621 41,000  Level Memphis Center
07:17PM 35.9897 -90.4725 46° Northeast 545 627 41,000  Level Memphis Center
07:18PM 36.0939 -90.3314 48° Northeast 545 627 41,000  Level Memphis Center
07:19PM 36.2064 -90.1769 48° Northeast 545 627 41,000  Level Memphis Center
07:20PM 36.3125 -90.0375 47° Northeast 545 627 41,000  Level Memphis Center
07:21PM 36.4142 -89.9006 47° Northeast 545 627 41,000  Level Memphis Center
07:22PM 36.5197 -89.7581 47° Northeast 545 627 41,000  Level Memphis Center
07:23PM 36.6253 -89.6175 47° Northeast 545 627 41,000  Level Memphis Center
07:24PM 36.7286 -89.4742 48° Northeast 545 627 41,000  Level Memphis Center
07:25PM 36.8297 -89.3306 49° Northeast 545 627 41,000 -780 Level Memphis Center
07:26PM 36.9347 -89.1864 48° Northeast 545 627 39,500 -1,800 Descending Memphis Center
07:27PM 37.0353 -89.0444 48° Northeast 545 627 37,400 -2,400 Descending Memphis Center
07:28PM 37.1378 -88.8997 48° Northeast 545 627 34,800 -2,580 Descending Memphis Center
07:29PM 37.2425 -88.7544 48° Northeast 545 627 32,300 -1,920 Descending Memphis Center
07:30PM 37.3322 -88.6300 48° Northeast 540 621 31,000 -2,100 Descending Memphis Center
07:33PM 37.5694 -88.2825 49° Northeast 520 598 24,900 -2,580 Descending Indianapolis Center
07:34PM 37.6619 -88.1500 49° Northeast 496 571 22,000 -3,120 Descending Indianapolis Center
07:35PM 37.7656 -88.0011 49° Northeast 479 551 18,600 -3,000 Descending Indianapolis Center
07:36PM 37.8461 -87.8825 49° Northeast 455 524 15,900 -2,700 Descending Indianapolis Center
07:37PM 37.8989 -87.7669 60° Northeast 405 466 13,100 -2,760 Descending Indianapolis Center
07:38PM 37.8772 -87.6478 103° East 355 409 10,300 -2,760 Descending Indianapolis Center
07:39PM 37.8517 -87.5378 106° East 335 386 7,500 -2,520 Descending Indianapolis Center
07:40PM 37.8311 -87.4344 104° East 314 361 5,200 -1,860 Descending Indianapolis Center
07:41PM 37.8408 -87.3472 82° East 271 312 3,700 -1,320 Descending Indianapolis Center
07:42PM 37.8408 -87.2675 90° East 246 283 2,500 -840 Descending Indianapolis Center
07:43PM 37.8272 -87.1906 103° East 206 237 2,000 -540 Descending Indianapolis Center
07:44PM 37.7917 -87.1689 154° Southeast 163 188 1,400 -540 Descending Indianapolis Center
07:45PM 37.7578 -87.1686 180° South 150 173 900 -540 Descending Indianapolis Center